Time;durP1;ratioP1;P1;durP2;ratioP2;P2;SDS_P1;SDS_P2;PMS_P1;PMS_P2;Temp;Humidity;BMP_temperature;BMP_pressure;BME280_temperature;BME280_humidity;BME280_pressure;Samples;Min_cycle;Max_cycle;Signal;HPM_P1;HPM_P2
2022/06/29 00:00:19;;;;;;;3.85;3.35;;;;;;;;;;2075093;28;20188;-57
2022/06/29 00:01:19;;;;;;;3.60;3.40;;;;;;;;;;2074542;28;20176;-54
2022/06/29 00:02:19;;;;;;;4.63;3.80;;;;;;;;;;2075347;28;20200;-56
2022/06/29 00:03:19;;;;;;;3.63;3.40;;;;;;;;;;2074952;28;20191;-62
2022/06/29 00:04:20;;;;;;;4.95;3.60;;;;;;;;;;2075263;28;20232;-56
2022/06/29 00:05:21;;;;;;;3.60;3.40;;;;;;;;;;2075854;28;20188;-56
2022/06/29 00:06:22;;;;;;;3.83;3.60;;;;;;;;;;2076134;28;20207;-57
2022/06/29 00:07:22;;;;;;;3.67;3.38;;;;;;;;;;2075875;28;20177;-54
2022/06/29 00:08:22;;;;;;;4.05;3.65;;;;;;;;;;2076117;28;20169;-56
2022/06/29 00:09:23;;;;;;;5.65;4.07;;;;;;;;;;2075822;28;20161;-59
2022/06/29 00:10:24;;;;;;;3.95;3.45;;;;;;;;;;2076280;28;20252;-56
2022/06/29 00:11:24;;;;;;;3.70;3.40;;;;;;;;;;2075749;28;20263;-56
2022/06/29 00:12:24;;;;;;;3.92;3.72;;;;;;;;;;2076089;28;20165;-57
2022/06/29 00:13:25;;;;;;;3.90;3.60;;;;;;;;;;2075644;28;20574;-56
2022/06/29 00:14:25;;;;;;;4.80;4.40;;;;;;;;;;2075425;28;20231;-57
2022/06/29 00:15:26;;;;;;;4.63;4.32;;;;;;;;;;2075735;28;20701;-58
2022/06/29 00:16:26;;;;;;;5.47;4.97;;;;;;;;;;2076044;28;20219;-57
2022/06/29 00:17:26;;;;;;;5.60;5.20;;;;;;;;;;2075520;28;20590;-58
2022/06/29 00:18:27;;;;;;;4.00;3.80;;;;;;;;;;2075065;28;20176;-57
2022/06/29 00:19:27;;;;;;;4.20;3.88;;;;;;;;;;2074960;28;20173;-57
2022/06/29 00:20:27;;;;;;;3.78;3.58;;;;;;;;;;2075584;28;20172;-58
2022/06/29 00:21:28;;;;;;;3.45;3.15;;;;;;;;;;2076059;28;20635;-57
2022/06/29 00:22:28;;;;;;;3.22;3.03;;;;;;;;;;2075835;28;20169;-57
2022/06/29 00:23:29;;;;;;;3.35;3.15;;;;;;;;;;2075888;28;20196;-57
2022/06/29 00:24:29;;;;;;;3.08;2.88;;;;;;;;;;2075152;28;20181;-58
2022/06/29 00:25:30;;;;;;;3.25;3.00;;;;;;;;;;2076086;28;20157;-60
2022/06/29 00:26:30;;;;;;;3.58;2.90;;;;;;;;;;2076633;28;20227;-56
2022/06/29 00:27:30;;;;;;;3.35;3.05;;;;;;;;;;2076125;28;20646;-58
2022/06/29 00:28:31;;;;;;;3.88;3.25;;;;;;;;;;2075315;28;20200;-57
2022/06/29 00:29:31;;;;;;;3.70;3.50;;;;;;;;;;2075436;28;20681;-60
2022/06/29 00:30:32;;;;;;;3.47;3.17;;;;;;;;;;2075195;28;20181;-57
2022/06/29 00:31:33;;;;;;;3.38;3.17;;;;;;;;;;2075584;28;20196;-57
2022/06/29 00:32:33;;;;;;;4.20;3.20;;;;;;;;;;2074595;28;20274;-58
2022/06/29 00:33:33;;;;;;;4.00;3.50;;;;;;;;;;2073675;28;20185;-56
2022/06/29 00:34:34;;;;;;;4.07;3.40;;;;;;;;;;2074231;28;20169;-58
2022/06/29 00:35:35;;;;;;;4.40;3.38;;;;;;;;;;2075069;28;20222;-59
2022/06/29 00:36:36;;;;;;;3.85;3.40;;;;;;;;;;2074808;28;20685;-58
2022/06/29 00:37:36;;;;;;;3.83;3.53;;;;;;;;;;2075266;28;20177;-58
2022/06/29 00:38:36;;;;;;;4.03;3.65;;;;;;;;;;2075594;28;20193;-56
2022/06/29 00:39:37;;;;;;;4.13;3.65;;;;;;;;;;2075595;28;20721;-57
2022/06/29 00:40:37;;;;;;;3.67;3.47;;;;;;;;;;2075365;28;20185;-58
2022/06/29 00:41:38;;;;;;;3.75;3.53;;;;;;;;;;2075381;28;20192;-57
2022/06/29 00:42:38;;;;;;;4.03;3.72;;;;;;;;;;2076040;28;20192;-58
2022/06/29 00:43:40;;;;;;;5.13;4.05;;;;;;;;;;2075833;28;20188;-58
2022/06/29 00:44:40;;;;;;;3.92;3.63;;;;;;;;;;2075001;28;20248;-57
2022/06/29 00:45:41;;;;;;;3.85;3.58;;;;;;;;;;2076168;28;20172;-55
2022/06/29 00:46:46;;;;;;;3.83;3.63;;;;;;;;;;2075805;28;20990;-57
2022/06/29 00:47:46;;;;;;;5.80;3.83;;;;;;;;;;2075564;28;20691;-59
2022/06/29 00:48:46;;;;;;;4.15;3.85;;;;;;;;;;2076137;28;20169;-56
2022/06/29 00:49:47;;;;;;;3.72;3.53;;;;;;;;;;2074707;28;20177;-58
2022/06/29 00:50:47;;;;;;;4.18;3.88;;;;;;;;;;2067680;28;20193;-57
2022/06/29 00:51:49;;;;;;;4.15;3.90;;;;;;;;;;2070901;28;20181;-57
2022/06/29 00:52:50;;;;;;;3.92;3.72;;;;;;;;;;2073510;28;20171;-57
2022/06/29 00:53:50;;;;;;;3.72;3.50;;;;;;;;;;2073353;28;20216;-57
2022/06/29 00:55:00;;;;;;;3.75;3.45;;;;;;;;;;2068272;28;20176;-56
2022/06/29 00:56:01;;;;;;;4.43;3.83;;;;;;;;;;2067723;28;20181;-57
2022/06/29 00:57:02;;;;;;;3.78;3.58;;;;;;;;;;2075464;28;20176;-57
2022/06/29 00:58:05;;;;;;;4.18;3.72;;;;;;;;;;2075414;28;20197;-57
2022/06/29 00:59:05;;;;;;;3.97;3.65;;;;;;;;;;2075628;28;20244;-57
2022/06/29 01:00:06;;;;;;;4.95;4.47;;;;;;;;;;2074942;28;20626;-57
2022/06/29 01:01:07;;;;;;;3.95;3.65;;;;;;;;;;2074702;28;20181;-58
2022/06/29 01:02:07;;;;;;;4.22;3.78;;;;;;;;;;2075006;28;20165;-57
2022/06/29 01:03:08;;;;;;;4.00;3.58;;;;;;;;;;2075217;28;20185;-57
2022/06/29 01:04:11;;;;;;;4.00;3.45;;;;;;;;;;2073890;28;20200;-58
2022/06/29 01:05:12;;;;;;;4.40;4.00;;;;;;;;;;2073028;28;20200;-56
2022/06/29 01:06:12;;;;;;;4.25;3.95;;;;;;;;;;2075577;28;20177;-58
2022/06/29 01:07:13;;;;;;;4.05;3.78;;;;;;;;;;2074874;28;20175;-57
2022/06/29 01:08:14;;;;;;;4.00;3.70;;;;;;;;;;2075297;28;20591;-56
2022/06/29 01:09:14;;;;;;;4.13;3.83;;;;;;;;;;2074640;28;20743;-57
2022/06/29 01:10:15;;;;;;;4.07;3.67;;;;;;;;;;2074546;28;20243;-59
2022/06/29 01:11:15;;;;;;;3.95;3.75;;;;;;;;;;2075576;28;20245;-57
2022/06/29 01:12:15;;;;;;;4.05;3.85;;;;;;;;;;2075402;28;20173;-55
2022/06/29 01:13:16;;;;;;;3.88;3.63;;;;;;;;;;2075668;28;20211;-55
2022/06/29 01:14:17;;;;;;;4.18;3.88;;;;;;;;;;2074163;28;20201;-56
2022/06/29 01:15:18;;;;;;;5.47;3.88;;;;;;;;;;2075409;28;20272;-60
2022/06/29 01:16:18;;;;;;;4.07;3.83;;;;;;;;;;2075868;28;20189;-57
2022/06/29 01:17:21;;;;;;;4.30;4.00;;;;;;;;;;2075367;28;20220;-61
2022/06/29 01:18:21;;;;;;;4.18;3.83;;;;;;;;;;2075551;28;20216;-56
2022/06/29 01:19:22;;;;;;;4.50;4.20;;;;;;;;;;2076009;28;20173;-56
2022/06/29 01:20:22;;;;;;;4.35;4.00;;;;;;;;;;2067915;28;20174;-57
2022/06/29 01:21:24;;;;;;;4.40;4.03;;;;;;;;;;2068303;28;20162;-57
2022/06/29 01:22:26;;;;;;;4.13;3.83;;;;;;;;;;2075088;28;20176;-58
2022/06/29 01:23:26;;;;;;;4.20;3.90;;;;;;;;;;2075413;28;20275;-55
2022/06/29 01:24:26;;;;;;;3.95;3.75;;;;;;;;;;2067191;28;20653;-56
2022/06/29 01:25:27;;;;;;;4.28;4.07;;;;;;;;;;2073354;28;20256;-56
2022/06/29 01:26:27;;;;;;;4.60;4.30;;;;;;;;;;2076203;28;20614;-56
2022/06/29 01:27:27;;;;;;;4.70;4.30;;;;;;;;;;2076214;28;20264;-59
2022/06/29 01:28:27;;;;;;;4.55;4.25;;;;;;;;;;2075426;28;20168;-57
2022/06/29 01:29:29;;;;;;;4.90;4.50;;;;;;;;;;2074882;28;20165;-56
2022/06/29 01:30:29;;;;;;;5.18;4.88;;;;;;;;;;2075069;28;20185;-57
2022/06/29 01:31:29;;;;;;;5.00;4.60;;;;;;;;;;2075036;28;20596;-57
2022/06/29 01:32:30;;;;;;;4.47;4.07;;;;;;;;;;2075060;28;20188;-55
2022/06/29 01:33:30;;;;;;;4.18;3.97;;;;;;;;;;2074786;28;20165;-58
2022/06/29 01:34:30;;;;;;;4.30;4.00;;;;;;;;;;2074213;28;20665;-56
2022/06/29 01:35:31;;;;;;;4.85;3.80;;;;;;;;;;2074626;28;20276;-56
2022/06/29 01:36:31;;;;;;;4.25;3.95;;;;;;;;;;2074549;28;20168;-55
2022/06/29 01:37:31;;;;;;;5.85;4.43;;;;;;;;;;2074552;28;20188;-54
2022/06/29 01:38:32;;;;;;;4.28;4.05;;;;;;;;;;2074373;28;20197;-55
2022/06/29 01:39:32;;;;;;;4.10;3.80;;;;;;;;;;2074520;28;20181;-57
2022/06/29 01:40:33;;;;;;;3.92;3.70;;;;;;;;;;2074437;28;20181;-56
2022/06/29 01:41:33;;;;;;;4.13;3.80;;;;;;;;;;2073552;28;20181;-56
2022/06/29 01:42:33;;;;;;;4.25;3.85;;;;;;;;;;2073649;28;20181;-56
2022/06/29 01:43:34;;;;;;;7.13;3.85;;;;;;;;;;2074248;28;20165;-55
2022/06/29 01:44:35;;;;;;;4.75;3.80;;;;;;;;;;2073421;28;20231;-55
2022/06/29 01:45:35;;;;;;;4.13;3.80;;;;;;;;;;2075200;28;20172;-54
2022/06/29 01:46:36;;;;;;;4.47;4.18;;;;;;;;;;2076400;28;20176;-57
2022/06/29 01:47:36;;;;;;;3.95;3.65;;;;;;;;;;2076186;28;20203;-56
2022/06/29 01:48:36;;;;;;;3.50;3.25;;;;;;;;;;2076165;28;20214;-55
2022/06/29 01:49:37;;;;;;;4.22;3.92;;;;;;;;;;2075918;28;20721;-56
2022/06/29 01:50:37;;;;;;;3.72;3.53;;;;;;;;;;2067655;28;20220;-53
2022/06/29 01:51:38;;;;;;;5.15;3.50;;;;;;;;;;2067378;28;20674;-56
2022/06/29 01:52:38;;;;;;;3.95;3.72;;;;;;;;;;2068290;28;20173;-58
2022/06/29 01:53:39;;;;;;;4.90;3.40;;;;;;;;;;2067808;28;20173;-55
2022/06/29 01:54:39;;;;;;;4.53;4.13;;;;;;;;;;2073427;28;20196;-57
2022/06/29 01:55:39;;;;;;;3.67;3.47;;;;;;;;;;2076045;28;20283;-59
2022/06/29 01:56:40;;;;;;;3.83;3.60;;;;;;;;;;2077112;28;20199;-55
2022/06/29 01:57:40;;;;;;;3.65;3.45;;;;;;;;;;2076607;28;20168;-57
2022/06/29 01:58:40;;;;;;;3.38;3.17;;;;;;;;;;2076774;28;20220;-59
2022/06/29 01:59:41;;;;;;;4.00;3.70;;;;;;;;;;2077490;28;20177;-58
2022/06/29 02:00:41;;;;;;;3.78;3.47;;;;;;;;;;2077079;28;20184;-57
2022/06/29 02:01:42;;;;;;;3.90;3.70;;;;;;;;;;2077224;28;20184;-57
2022/06/29 02:02:42;;;;;;;4.00;3.70;;;;;;;;;;2077518;28;20168;-57
2022/06/29 02:03:42;;;;;;;4.25;3.83;;;;;;;;;;2077709;28;20169;-59
2022/06/29 02:04:43;;;;;;;4.25;3.85;;;;;;;;;;2076873;28;20257;-58
2022/06/29 02:05:43;;;;;;;4.47;4.18;;;;;;;;;;2076910;28;20172;-58
2022/06/29 02:06:44;;;;;;;4.05;3.70;;;;;;;;;;2076163;28;20177;-60
2022/06/29 02:07:44;;;;;;;4.00;3.63;;;;;;;;;;2076438;28;20347;-57
2022/06/29 02:08:45;;;;;;;4.07;3.78;;;;;;;;;;2077229;28;20203;-58
2022/06/29 02:09:45;;;;;;;4.18;3.78;;;;;;;;;;2076205;28;20176;-56
2022/06/29 02:10:45;;;;;;;3.78;3.58;;;;;;;;;;2076347;28;20169;-56
2022/06/29 02:11:46;;;;;;;3.90;3.60;;;;;;;;;;2076406;28;20169;-61
2022/06/29 02:12:46;;;;;;;4.32;4.13;;;;;;;;;;2075918;28;20247;-58
2022/06/29 02:13:47;;;;;;;4.28;4.07;;;;;;;;;;2076001;28;20212;-56
2022/06/29 02:14:47;;;;;;;3.78;3.58;;;;;;;;;;2075336;28;20255;-56
2022/06/29 02:15:48;;;;;;;4.03;3.72;;;;;;;;;;2076114;28;20180;-57
2022/06/29 02:16:48;;;;;;;4.18;3.88;;;;;;;;;;2075496;28;20634;-57
2022/06/29 02:17:48;;;;;;;3.88;3.65;;;;;;;;;;2076153;28;20227;-56
2022/06/29 02:18:49;;;;;;;4.70;4.30;;;;;;;;;;2076714;28;20183;-57
2022/06/29 02:19:49;;;;;;;3.95;3.75;;;;;;;;;;2076361;28;20176;-57
2022/06/29 02:20:49;;;;;;;4.30;3.92;;;;;;;;;;2075746;28;20181;-57
2022/06/29 02:21:50;;;;;;;4.05;3.85;;;;;;;;;;2075950;28;20626;-55
2022/06/29 02:22:50;;;;;;;3.88;3.67;;;;;;;;;;2075810;28;20204;-54
2022/06/29 02:23:50;;;;;;;4.00;3.70;;;;;;;;;;2076129;28;20197;-55
2022/06/29 02:24:51;;;;;;;4.40;4.13;;;;;;;;;;2075511;28;20236;-53
2022/06/29 02:25:52;;;;;;;4.05;3.63;;;;;;;;;;2075801;28;20224;-55
2022/06/29 02:26:52;;;;;;;3.95;3.67;;;;;;;;;;2076192;28;20654;-56
2022/06/29 02:27:52;;;;;;;4.28;3.97;;;;;;;;;;2077402;28;20169;-57
2022/06/29 02:28:54;;;;;;;4.40;4.10;;;;;;;;;;2076035;28;20184;-58
2022/06/29 02:29:54;;;;;;;4.15;3.95;;;;;;;;;;2076157;28;20186;-55
2022/06/29 02:34:51;;;;;;;3.90;3.60;;;;;;;;;;2075523;28;20208;-58
2022/06/29 02:35:52;;;;;;;4.47;4.20;;;;;;;;;;2076299;28;20258;-57
2022/06/29 02:36:52;;;;;;;4.47;4.10;;;;;;;;;;2075724;28;20299;-56
2022/06/29 02:37:53;;;;;;;4.13;3.88;;;;;;;;;;2076458;28;20169;-62
2022/06/29 02:38:53;;;;;;;4.65;4.25;;;;;;;;;;2076771;28;20181;-57
2022/06/29 02:39:53;;;;;;;4.70;4.28;;;;;;;;;;2075715;28;20228;-56
2022/06/29 02:40:54;;;;;;;4.22;3.92;;;;;;;;;;2076292;28;20174;-56
2022/06/29 02:41:54;;;;;;;3.97;3.78;;;;;;;;;;2076064;28;20626;-56
2022/06/29 02:42:55;;;;;;;3.97;3.78;;;;;;;;;;2074762;28;20227;-55
2022/06/29 02:43:55;;;;;;;4.70;4.32;;;;;;;;;;2075598;28;20184;-59
2022/06/29 02:44:55;;;;;;;3.55;3.40;;;;;;;;;;2074734;28;20173;-57
2022/06/29 02:45:56;;;;;;;4.00;3.67;;;;;;;;;;2075676;28;20667;-57
2022/06/29 02:46:56;;;;;;;3.92;3.63;;;;;;;;;;2075438;28;20579;-55
2022/06/29 02:47:57;;;;;;;4.78;4.47;;;;;;;;;;2075409;28;20688;-55
2022/06/29 02:48:57;;;;;;;3.92;3.72;;;;;;;;;;2075553;28;20169;-57
2022/06/29 02:49:57;;;;;;;4.50;4.10;;;;;;;;;;2072741;28;20174;-58
2022/06/29 02:50:58;;;;;;;4.57;4.28;;;;;;;;;;2067762;28;20643;-59
2022/06/29 02:51:58;;;;;;;3.88;3.67;;;;;;;;;;2075652;28;20198;-57
2022/06/29 02:52:59;;;;;;;4.18;3.88;;;;;;;;;;2075301;28;20216;-57
2022/06/29 02:53:59;;;;;;;4.82;4.43;;;;;;;;;;2076222;28;20526;-56
2022/06/29 02:54:59;;;;;;;4.40;4.10;;;;;;;;;;2076604;28;20177;-56
2022/06/29 02:56:00;;;;;;;4.50;4.20;;;;;;;;;;2076196;28;20177;-56
2022/06/29 02:57:00;;;;;;;4.50;4.10;;;;;;;;;;2071366;28;20512;-56
2022/06/29 02:58:00;;;;;;;3.97;3.78;;;;;;;;;;2075368;28;20493;-54
2022/06/29 02:59:01;;;;;;;4.10;3.90;;;;;;;;;;2072482;28;20643;-57
2022/06/29 03:00:01;;;;;;;4.00;3.50;;;;;;;;;;2075221;28;20223;-56
2022/06/29 03:01:02;;;;;;;3.40;3.30;;;;;;;;;;2076257;28;20196;-58
2022/06/29 03:02:02;;;;;;;3.67;3.47;;;;;;;;;;2075550;28;20541;-56
2022/06/29 03:03:03;;;;;;;4.03;3.83;;;;;;;;;;2075944;28;20615;-54
2022/06/29 03:04:03;;;;;;;4.50;3.83;;;;;;;;;;2074002;28;20213;-55
2022/06/29 03:05:03;;;;;;;4.10;3.90;;;;;;;;;;2087963;23;20232;-58
2022/06/29 03:06:04;;;;;;;4.05;3.70;;;;;;;;;;2078992;28;20196;-56
2022/06/29 03:07:04;;;;;;;4.20;4.00;;;;;;;;;;2078084;28;20183;-59
2022/06/29 03:08:05;;;;;;;3.88;3.58;;;;;;;;;;2077982;28;20181;-59
2022/06/29 03:09:05;;;;;;;4.38;4.15;;;;;;;;;;2074300;28;20199;-58
2022/06/29 03:10:06;;;;;;;4.78;4.43;;;;;;;;;;2077141;28;20242;-56
2022/06/29 03:11:06;;;;;;;4.75;3.70;;;;;;;;;;2082305;28;20175;-57
2022/06/29 03:12:07;;;;;;;4.25;3.92;;;;;;;;;;2081904;28;20171;-57
2022/06/29 03:13:07;;;;;;;4.43;4.03;;;;;;;;;;2082365;28;20177;-58
2022/06/29 03:14:07;;;;;;;4.15;3.90;;;;;;;;;;2080131;28;20199;-56
2022/06/29 03:15:08;;;;;;;4.53;4.15;;;;;;;;;;2078284;28;20272;-60
2022/06/29 03:16:08;;;;;;;4.20;3.90;;;;;;;;;;2082249;28;20202;-55
2022/06/29 03:17:09;;;;;;;4.20;3.90;;;;;;;;;;2081441;28;20227;-55
2022/06/29 03:18:09;;;;;;;3.90;3.70;;;;;;;;;;2073524;28;20173;-58
2022/06/29 03:19:09;;;;;;;4.10;3.72;;;;;;;;;;2081704;28;20240;-58
2022/06/29 03:20:10;;;;;;;4.63;4.03;;;;;;;;;;2082627;28;20189;-49
2022/06/29 03:21:11;;;;;;;3.50;3.20;;;;;;;;;;2082561;28;20175;-56
2022/06/29 03:22:11;;;;;;;3.90;3.60;;;;;;;;;;2091850;28;20187;-54
2022/06/29 03:23:11;;;;;;;4.00;3.75;;;;;;;;;;2087109;28;20210;-55
2022/06/29 03:24:11;;;;;;;3.65;3.45;;;;;;;;;;2081382;28;20179;-57
2022/06/29 03:25:12;;;;;;;4.10;3.70;;;;;;;;;;2082101;28;20196;-55
2022/06/29 03:26:13;;;;;;;3.85;3.65;;;;;;;;;;2089934;28;20286;-58
2022/06/29 03:27:13;;;;;;;5.10;3.15;;;;;;;;;;2090242;28;20197;-54
2022/06/29 03:28:13;;;;;;;3.75;3.55;;;;;;;;;;2082380;28;20173;-55
2022/06/29 03:29:14;;;;;;;3.60;3.40;;;;;;;;;;2082663;28;20168;-56
2022/06/29 03:30:14;;;;;;;4.13;3.83;;;;;;;;;;2082308;28;20191;-59
2022/06/29 03:31:14;;;;;;;4.05;3.75;;;;;;;;;;2082184;28;20190;-53
2022/06/29 03:32:15;;;;;;;4.03;3.78;;;;;;;;;;2082272;28;20552;-56
2022/06/29 03:33:15;;;;;;;3.88;3.67;;;;;;;;;;2082518;28;20175;-55
2022/06/29 03:34:15;;;;;;;3.83;3.50;;;;;;;;;;2081383;28;20284;-57
2022/06/29 03:35:16;;;;;;;4.15;3.85;;;;;;;;;;2082274;28;20199;-54
2022/06/29 03:36:16;;;;;;;4.35;4.07;;;;;;;;;;2082442;28;20160;-55
2022/06/29 03:37:16;;;;;;;5.25;4.85;;;;;;;;;;2082342;28;20587;-60
2022/06/29 03:38:17;;;;;;;4.20;3.90;;;;;;;;;;2082357;28;20168;-59
2022/06/29 03:39:17;;;;;;;4.82;4.43;;;;;;;;;;2084252;28;20185;-56
2022/06/29 03:40:17;;;;;;;4.50;3.80;;;;;;;;;;2081390;28;20168;-56
2022/06/29 03:41:18;;;;;;;4.03;3.72;;;;;;;;;;2081791;28;20197;-56
2022/06/29 03:42:18;;;;;;;4.28;3.97;;;;;;;;;;2082379;28;20580;-54
2022/06/29 03:43:19;;;;;;;3.97;3.53;;;;;;;;;;2082601;28;20192;-57
2022/06/29 03:44:19;;;;;;;5.35;3.95;;;;;;;;;;2081646;28;20305;-59
2022/06/29 03:45:19;;;;;;;3.53;3.33;;;;;;;;;;2081977;28;20242;-59
2022/06/29 03:46:20;;;;;;;5.10;3.85;;;;;;;;;;2082004;28;20254;-56
2022/06/29 03:47:20;;;;;;;3.97;3.75;;;;;;;;;;2081907;28;20255;-59
2022/06/29 03:48:21;;;;;;;4.25;3.95;;;;;;;;;;2073824;28;20169;-60
2022/06/29 03:49:21;;;;;;;4.00;3.70;;;;;;;;;;2081639;28;20184;-58
2022/06/29 03:50:22;;;;;;;3.90;3.70;;;;;;;;;;2082807;28;20172;-57
2022/06/29 03:51:22;;;;;;;3.88;3.58;;;;;;;;;;2082577;28;20196;-57
2022/06/29 03:52:22;;;;;;;3.67;3.38;;;;;;;;;;2082095;28;20259;-57
2022/06/29 03:53:23;;;;;;;3.67;3.47;;;;;;;;;;2082317;28;20168;-55
2022/06/29 03:54:23;;;;;;;3.55;3.35;;;;;;;;;;2081692;28;20196;-59
2022/06/29 03:55:23;;;;;;;3.58;3.38;;;;;;;;;;2082039;28;20192;-59
2022/06/29 03:56:24;;;;;;;3.75;3.55;;;;;;;;;;2081609;28;20188;-54
2022/06/29 03:57:24;;;;;;;4.70;4.30;;;;;;;;;;2081610;28;20165;-54
2022/06/29 03:58:24;;;;;;;4.45;4.13;;;;;;;;;;2082390;28;20184;-58
2022/06/29 03:59:25;;;;;;;4.05;3.72;;;;;;;;;;2082179;28;20164;-56
2022/06/29 04:00:25;;;;;;;3.95;3.65;;;;;;;;;;2080811;28;20210;-54
2022/06/29 04:01:26;;;;;;;5.38;3.83;;;;;;;;;;2081337;28;20176;-56
2022/06/29 04:02:26;;;;;;;4.20;3.95;;;;;;;;;;2082105;28;20215;-57
2022/06/29 04:03:26;;;;;;;4.82;4.53;;;;;;;;;;2082245;28;20641;-56
2022/06/29 04:04:27;;;;;;;5.28;4.97;;;;;;;;;;2081509;28;20168;-57
2022/06/29 04:05:27;;;;;;;4.25;3.95;;;;;;;;;;2081721;28;20208;-56
2022/06/29 04:06:27;;;;;;;5.50;5.10;;;;;;;;;;2081904;28;20168;-58
2022/06/29 04:07:28;;;;;;;6.70;5.45;;;;;;;;;;2082276;28;20168;-56
2022/06/29 04:08:28;;;;;;;6.18;5.68;;;;;;;;;;2081913;28;20180;-55
2022/06/29 04:09:28;;;;;;;3.75;3.45;;;;;;;;;;2082305;28;20176;-58
2022/06/29 04:10:29;;;;;;;8.10;4.72;;;;;;;;;;2082215;28;20191;-55
2022/06/29 04:12:48;;;;;;;4.90;4.30;;;;;;;;;;2082038;28;20222;-57
2022/06/29 04:13:48;;;;;;;4.50;4.10;;;;;;;;;;2081653;28;20199;-59
2022/06/29 04:14:49;;;;;;;5.38;4.68;;;;;;;;;;2080383;28;20167;-58
2022/06/29 04:15:49;;;;;;;4.22;3.75;;;;;;;;;;2081227;28;20183;-57
2022/06/29 04:16:51;;;;;;;5.25;4.55;;;;;;;;;;2089817;28;20164;-53
2022/06/29 04:17:51;;;;;;;4.18;3.88;;;;;;;;;;2082046;28;20165;-56
2022/06/29 04:18:51;;;;;;;6.80;4.93;;;;;;;;;;2081914;28;20180;-57
2022/06/29 04:19:52;;;;;;;4.00;3.70;;;;;;;;;;2082190;28;20243;-58
2022/06/29 04:21:07;;;;;;;6.03;4.57;;;;;;;;;;2081227;28;20201;-53
2022/06/29 04:22:07;;;;;;;4.95;4.43;;;;;;;;;;2075413;28;20189;-54
2022/06/29 04:23:08;;;;;;;4.30;4.07;;;;;;;;;;2081551;28;20175;-57
2022/06/29 04:24:08;;;;;;;4.47;4.18;;;;;;;;;;2080928;28;20179;-54
2022/06/29 04:25:09;;;;;;;6.50;4.38;;;;;;;;;;2081937;28;20195;-60
2022/06/29 04:26:09;;;;;;;3.88;3.65;;;;;;;;;;2081148;28;20176;-58
2022/06/29 04:27:10;;;;;;;4.03;3.72;;;;;;;;;;2081320;28;20211;-59
2022/06/29 04:28:10;;;;;;;3.78;3.50;;;;;;;;;;2082034;28;20382;-57
2022/06/29 04:29:11;;;;;;;5.20;4.65;;;;;;;;;;2081865;28;20164;-57
2022/06/29 04:30:11;;;;;;;4.35;3.88;;;;;;;;;;2089552;28;20180;-56
2022/06/29 04:31:11;;;;;;;4.07;3.78;;;;;;;;;;2072807;28;20176;-60
2022/06/29 04:32:12;;;;;;;4.60;4.20;;;;;;;;;;2073267;28;20177;-55
2022/06/29 04:33:12;;;;;;;4.38;3.97;;;;;;;;;;2080526;28;20208;-51
2022/06/29 04:34:13;;;;;;;3.95;3.65;;;;;;;;;;2080300;28;20219;-52
2022/06/29 04:35:13;;;;;;;4.50;4.20;;;;;;;;;;2081032;28;20249;-51
2022/06/29 04:36:13;;;;;;;7.20;4.90;;;;;;;;;;2081918;28;20239;-55
2022/06/29 04:37:14;;;;;;;6.65;5.10;;;;;;;;;;2081974;28;20752;-54
2022/06/29 04:38:14;;;;;;;4.25;3.85;;;;;;;;;;2082701;28;20302;-56
2022/06/29 04:39:15;;;;;;;4.32;4.03;;;;;;;;;;2081650;28;20621;-52
2022/06/29 04:40:15;;;;;;;6.97;5.00;;;;;;;;;;2081350;28;20184;-56
2022/06/29 04:41:16;;;;;;;4.93;3.70;;;;;;;;;;2081750;28;20251;-53
2022/06/29 04:42:16;;;;;;;4.10;3.83;;;;;;;;;;2081315;28;20176;-55
2022/06/29 04:43:16;;;;;;;6.68;4.20;;;;;;;;;;2081147;28;20661;-54
2022/06/29 04:44:16;;;;;;;6.00;4.47;;;;;;;;;;2081686;28;20180;-57
2022/06/29 04:46:36;;;;;;;3.92;3.63;;;;;;;;;;2081452;28;20225;-51
2022/06/29 04:47:36;;;;;;;5.85;4.30;;;;;;;;;;2082122;28;20245;-57
2022/06/29 04:48:37;;;;;;;8.68;5.45;;;;;;;;;;2082021;28;20588;-55
2022/06/29 04:49:37;;;;;;;5.95;4.30;;;;;;;;;;2080788;28;20257;-54
2022/06/29 04:50:37;;;;;;;4.28;3.78;;;;;;;;;;2082635;28;20209;-52
2022/06/29 04:51:38;;;;;;;4.45;4.05;;;;;;;;;;2091425;28;20178;-57
2022/06/29 04:52:38;;;;;;;6.32;4.03;;;;;;;;;;2091723;28;20184;-61
2022/06/29 04:53:38;;;;;;;4.40;4.00;;;;;;;;;;2082454;28;20188;-55
2022/06/29 04:54:39;;;;;;;5.35;4.15;;;;;;;;;;2081559;28;20172;-57
2022/06/29 04:55:39;;;;;;;4.15;3.75;;;;;;;;;;2081998;28;20574;-57
2022/06/29 04:56:40;;;;;;;4.07;3.70;;;;;;;;;;2081921;28;20176;-54
2022/06/29 04:57:40;;;;;;;3.88;3.58;;;;;;;;;;2082294;28;20187;-60
2022/06/29 04:58:41;;;;;;;4.20;3.80;;;;;;;;;;2081659;28;20161;-55
2022/06/29 04:59:41;;;;;;;4.53;4.03;;;;;;;;;;2081061;28;20615;-57
2022/06/29 05:00:41;;;;;;;5.03;4.57;;;;;;;;;;2083291;28;20167;-56
2022/06/29 05:01:43;;;;;;;4.57;4.20;;;;;;;;;;2089244;28;20195;-52
2022/06/29 05:02:43;;;;;;;4.47;4.07;;;;;;;;;;2089264;28;20183;-59
2022/06/29 05:03:44;;;;;;;4.32;4.00;;;;;;;;;;2083146;28;20188;-53
2022/06/29 05:04:44;;;;;;;4.95;3.75;;;;;;;;;;2080730;28;20703;-57
2022/06/29 05:05:47;;;;;;;4.63;4.32;;;;;;;;;;2089852;28;20203;-54
2022/06/29 05:06:47;;;;;;;4.55;4.07;;;;;;;;;;2089113;28;20181;-53
2022/06/29 05:07:48;;;;;;;4.63;4.03;;;;;;;;;;2081512;28;20195;-56
2022/06/29 05:08:49;;;;;;;5.95;4.70;;;;;;;;;;2082060;28;20592;-58
2022/06/29 05:09:49;;;;;;;5.63;4.50;;;;;;;;;;2081164;28;20585;-56
2022/06/29 05:10:49;;;;;;;8.98;5.25;;;;;;;;;;2081110;28;20168;-58
2022/06/29 05:11:50;;;;;;;8.35;5.35;;;;;;;;;;2086705;28;20172;-55
2022/06/29 05:12:50;;;;;;;30.90;6.40;;;;;;;;;;2086332;28;20176;-58
2022/06/29 05:13:50;;;;;;;23.92;5.40;;;;;;;;;;2086648;28;20163;-56
2022/06/29 05:14:51;;;;;;;25.98;6.22;;;;;;;;;;2088226;28;20259;-54
2022/06/29 05:15:51;;;;;;;10.90;3.80;;;;;;;;;;2082648;28;20168;-55
2022/06/29 05:16:51;;;;;;;14.20;5.00;;;;;;;;;;2080249;28;20200;-55
2022/06/29 05:17:52;;;;;;;12.20;4.53;;;;;;;;;;2081818;28;20255;-53
2022/06/29 05:18:52;;;;;;;4.30;3.83;;;;;;;;;;2081408;28;20591;-57
2022/06/29 05:19:52;;;;;;;4.68;4.00;;;;;;;;;;2081039;28;20160;-57
2022/06/29 05:20:53;;;;;;;4.40;4.00;;;;;;;;;;2081217;28;20188;-56
2022/06/29 05:21:53;;;;;;;6.05;4.38;;;;;;;;;;2081312;28;20546;-52
2022/06/29 05:22:53;;;;;;;6.28;4.18;;;;;;;;;;2081239;28;20161;-57
2022/06/29 05:23:54;;;;;;;5.43;4.10;;;;;;;;;;2081093;28;20207;-55
2022/06/29 05:24:54;;;;;;;4.30;3.90;;;;;;;;;;2080866;28;20173;-57
2022/06/29 05:25:55;;;;;;;4.63;4.32;;;;;;;;;;2080897;28;20184;-56
2022/06/29 05:26:55;;;;;;;4.90;4.45;;;;;;;;;;2080858;28;20188;-57
2022/06/29 05:27:55;;;;;;;6.50;4.25;;;;;;;;;;2081554;28;20172;-55
2022/06/29 05:28:56;;;;;;;5.30;4.78;;;;;;;;;;2080943;28;20203;-50
2022/06/29 05:29:56;;;;;;;4.93;4.50;;;;;;;;;;2081208;28;20183;-54
2022/06/29 05:30:56;;;;;;;4.80;4.10;;;;;;;;;;2081750;28;20776;-56
2022/06/29 05:31:57;;;;;;;4.18;3.58;;;;;;;;;;2082075;28;20254;-57
2022/06/29 05:32:58;;;;;;;4.65;3.58;;;;;;;;;;2081596;28;20591;-59
2022/06/29 05:33:58;;;;;;;3.60;3.30;;;;;;;;;;2072417;28;20307;-61
2022/06/29 05:34:58;;;;;;;6.95;3.60;;;;;;;;;;2080384;28;20255;-52
2022/06/29 05:36:01;;;;;;;3.97;3.58;;;;;;;;;;2080948;28;20669;-56
2022/06/29 05:37:01;;;;;;;5.25;3.70;;;;;;;;;;2085528;28;20181;-60
2022/06/29 05:38:02;;;;;;;6.20;3.53;;;;;;;;;;2087431;28;20184;-58
2022/06/29 05:39:03;;;;;;;3.97;3.35;;;;;;;;;;2082159;28;20198;-54
2022/06/29 05:40:04;;;;;;;7.03;3.63;;;;;;;;;;2080582;28;20367;-53
2022/06/29 05:41:04;;;;;;;4.18;3.60;;;;;;;;;;2081070;28;20182;-55
2022/06/29 05:42:05;;;;;;;5.40;4.22;;;;;;;;;;2081368;28;20160;-54
2022/06/29 05:43:07;;;;;;;6.18;4.07;;;;;;;;;;2081457;28;20230;-53
2022/06/29 05:44:08;;;;;;;4.88;3.63;;;;;;;;;;2079765;28;20229;-56
2022/06/29 05:45:08;;;;;;;4.05;3.75;;;;;;;;;;2088709;28;20195;-58
2022/06/29 05:46:09;;;;;;;7.05;4.13;;;;;;;;;;2088358;28;20184;-55
2022/06/29 05:47:09;;;;;;;4.13;3.75;;;;;;;;;;2081492;28;20176;-58
2022/06/29 05:48:10;;;;;;;4.03;3.55;;;;;;;;;;2081304;28;20176;-55
2022/06/29 05:49:10;;;;;;;5.18;4.03;;;;;;;;;;2081427;28;20160;-57
2022/06/29 05:50:10;;;;;;;3.95;3.53;;;;;;;;;;2081328;28;20183;-53
2022/06/29 05:51:11;;;;;;;4.85;4.32;;;;;;;;;;2081028;28;20186;-57
2022/06/29 05:52:11;;;;;;;10.18;4.68;;;;;;;;;;2080524;28;20184;-57
2022/06/29 05:53:11;;;;;;;10.18;4.40;;;;;;;;;;2081013;28;20176;-53
2022/06/29 05:54:12;;;;;;;8.30;4.38;;;;;;;;;;2080483;28;20203;-58
2022/06/29 05:55:12;;;;;;;5.07;4.47;;;;;;;;;;2080865;28;20179;-52
2022/06/29 05:56:12;;;;;;;11.02;4.00;;;;;;;;;;2080376;28;20251;-59
2022/06/29 05:57:13;;;;;;;5.43;3.97;;;;;;;;;;2080762;28;20164;-55
2022/06/29 05:58:19;;;;;;;4.65;4.00;;;;;;;;;;2080649;28;20195;-56
2022/06/29 05:59:19;;;;;;;6.20;3.88;;;;;;;;;;2081334;28;20149;-52
2022/06/29 06:00:19;;;;;;;4.00;3.70;;;;;;;;;;2081300;28;20165;-53
2022/06/29 06:01:20;;;;;;;5.20;4.55;;;;;;;;;;2081412;28;20176;-53
2022/06/29 06:02:20;;;;;;;5.85;4.40;;;;;;;;;;2081522;28;20164;-57
2022/06/29 06:03:20;;;;;;;7.78;4.30;;;;;;;;;;2081509;28;20175;-57
2022/06/29 06:04:21;;;;;;;6.20;5.18;;;;;;;;;;2079719;28;20671;-57
2022/06/29 06:05:21;;;;;;;18.60;6.70;;;;;;;;;;2080806;28;20204;-56
2022/06/29 06:06:21;;;;;;;4.82;4.30;;;;;;;;;;2081533;28;20169;-53
2022/06/29 06:07:22;;;;;;;17.55;7.13;;;;;;;;;;2081243;28;20283;-57
2022/06/29 06:08:22;;;;;;;12.80;6.63;;;;;;;;;;2081782;28;20181;-52
2022/06/29 06:09:26;;;;;;;5.35;4.68;;;;;;;;;;2082008;28;20206;-56